createdAt,value
2023-02-02T00:00:59.405Z,90.02
2023-02-02T00:06:09.373Z,90.22
2023-02-02T00:11:13.412Z,90.38
2023-02-02T00:16:29.197Z,90.51
2023-02-02T00:21:33.024Z,90.59
2023-02-02T00:26:37.544Z,90.53
2023-02-02T00:31:40.835Z,90.50
2023-02-02T00:36:45.745Z,90.51
2023-02-02T00:41:49.046Z,90.61
2023-02-02T00:46:52.140Z,90.71
2023-02-02T00:51:55.278Z,90.74
2023-02-02T00:56:58.361Z,90.70
2023-02-02T01:02:02.404Z,90.55
2023-02-02T01:07:06.613Z,90.32
2023-02-02T01:12:09.737Z,90.12
2023-02-02T01:17:14.852Z,89.90
2023-02-02T01:22:17.978Z,89.71
2023-02-02T01:27:21.186Z,89.67
2023-02-02T01:32:24.306Z,89.64
2023-02-02T01:37:28.017Z,89.60
2023-02-02T01:42:31.220Z,89.79
2023-02-02T01:47:43.136Z,89.90
2023-02-02T01:52:49.831Z,90.04
2023-02-02T01:58:00.928Z,90.16
2023-02-02T02:03:12.029Z,90.30
2023-02-02T02:08:47.507Z,90.43
2023-02-02T02:14:13.650Z,90.52
2023-02-02T02:20:07.009Z,90.61
2023-02-02T02:26:05.413Z,90.68
2023-02-02T02:31:21.878Z,90.76
2023-02-02T02:36:52.998Z,90.88
2023-02-02T02:42:03.015Z,91.04
2023-02-02T02:47:06.484Z,91.10
2023-02-02T02:52:10.104Z,91.11
2023-02-02T02:57:42.075Z,91.18
2023-02-02T03:03:26.568Z,91.39
2023-02-02T03:08:32.764Z,91.46
2023-02-02T03:13:36.361Z,91.40
2023-02-02T03:18:40.175Z,91.34
2023-02-02T03:23:43.393Z,91.31
2023-02-02T03:28:46.801Z,91.38
2023-02-02T03:33:49.899Z,91.42
2023-02-02T03:38:53.021Z,91.54
2023-02-02T03:43:56.121Z,91.51
2023-02-02T03:48:59.321Z,91.56
2023-02-02T03:54:02.534Z,91.59
2023-02-02T03:59:05.843Z,91.57
2023-02-02T04:04:08.956Z,91.57
2023-02-02T04:09:12.062Z,91.55
2023-02-02T04:14:15.265Z,91.42
2023-02-02T04:19:18.476Z,91.38
2023-02-02T04:24:21.923Z,91.42
2023-02-02T04:29:26.633Z,91.43
2023-02-02T04:34:29.876Z,91.42
2023-02-02T04:39:33.057Z,91.32
2023-02-02T04:44:36.154Z,91.19
2023-02-02T04:49:39.690Z,91.07
2023-02-02T04:54:42.887Z,91.02
2023-02-02T04:59:46.195Z,90.95
2023-02-02T05:04:49.462Z,91.00
2023-02-02T05:09:52.623Z,91.01
2023-02-02T05:14:55.925Z,91.06
2023-02-02T05:19:59.362Z,91.15
2023-02-02T05:25:02.755Z,91.21
2023-02-02T05:30:07.289Z,91.18
2023-02-02T05:35:11.738Z,91.11
2023-02-02T05:40:14.833Z,91.25
2023-02-02T05:45:20.912Z,91.33
2023-02-02T05:50:24.041Z,91.29
2023-02-02T05:55:27.322Z,91.19
2023-02-02T06:00:30.532Z,91.15
2023-02-02T06:05:33.985Z,91.17
2023-02-02T06:10:41.613Z,91.25
2023-02-02T06:15:44.749Z,91.21
2023-02-02T06:20:47.984Z,91.25
2023-02-02T06:25:51.599Z,91.23
2023-02-02T06:30:54.739Z,91.18
2023-02-02T06:36:03.926Z,91.07
2023-02-02T06:41:07.570Z,90.94
2023-02-02T06:46:10.791Z,90.87
2023-02-02T06:51:14.196Z,90.93
2023-02-02T06:56:20.247Z,91.00
2023-02-02T07:01:23.512Z,91.00
2023-02-02T07:06:29.178Z,91.03
2023-02-02T07:11:37.564Z,90.91
2023-02-02T07:16:43.955Z,91.01
2023-02-02T07:21:47.192Z,91.06
2023-02-02T07:26:50.447Z,91.09
2023-02-02T07:31:53.604Z,91.04
2023-02-02T07:36:58.294Z,90.97
2023-02-02T07:42:01.438Z,90.89
2023-02-02T07:47:05.465Z,90.83
2023-02-02T07:52:08.609Z,90.80
2023-02-02T07:57:13.925Z,90.46
2023-02-02T08:02:17.551Z,90.36
2023-02-02T08:07:24.860Z,90.43
2023-02-02T08:12:28.617Z,90.43
2023-02-02T08:17:31.674Z,90.36
2023-02-02T08:22:34.783Z,90.24
2023-02-02T08:27:38.048Z,90.14
2023-02-02T08:32:41.340Z,89.79
2023-02-02T08:37:44.408Z,89.93
2023-02-02T08:42:51.339Z,90.11
2023-02-02T08:48:10.406Z,90.18
2023-02-02T08:53:14.825Z,90.33
2023-02-02T08:58:18.034Z,90.49
2023-02-02T09:03:21.959Z,90.61
2023-02-02T09:08:25.129Z,90.49
2023-02-02T09:13:28.389Z,90.50
2023-02-02T09:18:32.629Z,90.44
2023-02-02T09:23:39.062Z,90.60
2023-02-02T09:28:47.276Z,90.52
2023-02-02T09:33:51.140Z,90.38
2023-02-02T09:38:54.276Z,90.21
2023-02-02T09:44:33.187Z,90.06
2023-02-02T09:50:16.957Z,89.86
2023-02-02T09:55:41.455Z,89.96
2023-02-02T10:01:00.640Z,89.82
2023-02-02T10:06:47.370Z,89.78
2023-02-02T10:11:56.419Z,89.76
2023-02-02T10:17:52.389Z,89.57
2023-02-02T10:23:03.990Z,89.57
2023-02-02T10:28:33.086Z,89.64
2023-02-02T10:33:39.797Z,89.38
2023-02-02T10:39:23.122Z,88.75
2023-02-02T10:44:47.425Z,88.59
2023-02-02T10:50:08.044Z,88.56
2023-02-02T10:55:28.968Z,88.29
2023-02-02T11:00:56.082Z,88.03
2023-02-02T11:06:21.451Z,88.10
2023-02-02T11:11:42.591Z,87.68
2023-02-02T11:17:01.264Z,87.25
2023-02-02T11:22:06.018Z,87.06
2023-02-02T11:27:14.459Z,86.68
2023-02-02T11:32:30.876Z,86.69
2023-02-02T11:38:09.290Z,86.51
2023-02-02T11:43:28.699Z,85.83
2023-02-02T11:48:39.298Z,83.99
2023-02-02T11:53:48.626Z,83.60
2023-02-02T11:58:59.886Z,83.25
2023-02-02T12:04:26.341Z,83.74
2023-02-02T12:09:29.679Z,85.79
2023-02-02T12:15:03.713Z,86.31
2023-02-02T12:20:37.751Z,85.31
2023-02-02T12:25:55.802Z,84.65
2023-02-02T12:31:40.845Z,84.79
2023-02-02T12:37:14.120Z,84.00
2023-02-02T12:42:47.213Z,83.21
2023-02-02T12:48:25.552Z,83.18
2023-02-02T12:54:34.998Z,83.30
2023-02-02T12:59:42.644Z,82.38
2023-02-02T13:05:48.392Z,82.56
2023-02-02T13:11:28.872Z,81.82
2023-02-02T13:16:37.283Z,81.42
2023-02-02T13:21:43.736Z,81.76
2023-02-02T13:26:52.589Z,83.50
2023-02-02T13:32:05.804Z,84.61
2023-02-02T13:37:24.021Z,84.64
2023-02-02T13:43:07.182Z,85.26
2023-02-02T13:48:32.008Z,86.29
2023-02-02T13:54:49.450Z,87.31
2023-02-02T14:00:31.471Z,87.93
2023-02-02T14:05:40.622Z,88.42
2023-02-02T14:10:53.578Z,88.56
2023-02-02T14:16:05.935Z,88.77
2023-02-02T14:21:09.592Z,88.92
2023-02-02T14:26:41.587Z,88.98
2023-02-02T14:31:57.467Z,89.01
2023-02-02T14:37:28.544Z,89.11
2023-02-02T14:43:22.140Z,89.36
2023-02-02T14:48:26.889Z,89.46
2023-02-02T14:53:35.612Z,89.43
2023-02-02T14:58:44.067Z,89.36
2023-02-02T15:04:17.574Z,89.45
2023-02-02T15:09:20.915Z,89.55
2023-02-02T15:14:32.933Z,89.64
2023-02-02T15:19:44.062Z,89.57
2023-02-02T15:24:48.794Z,89.60
2023-02-02T15:30:07.729Z,89.61
2023-02-02T15:35:23.880Z,89.78
2023-02-02T15:40:33.344Z,89.92
2023-02-02T15:45:43.812Z,90.17
2023-02-02T15:50:51.339Z,90.34
2023-02-02T15:55:57.595Z,90.44
2023-02-02T16:01:19.109Z,90.46
2023-02-02T16:06:22.827Z,90.51
2023-02-02T16:11:26.114Z,90.46
2023-02-02T16:16:32.687Z,90.43
2023-02-02T16:21:46.763Z,90.51
2023-02-02T16:26:54.436Z,90.51
2023-02-02T16:31:58.602Z,90.39
2023-02-02T16:37:12.479Z,90.35
2023-02-02T16:42:31.920Z,90.46
2023-02-02T16:47:38.979Z,90.50
2023-02-02T16:52:52.829Z,90.33
2023-02-02T16:57:57.261Z,90.32
2023-02-02T17:03:10.328Z,90.68
2023-02-02T17:08:15.144Z,90.92
2023-02-02T17:13:35.045Z,91.06
2023-02-02T17:18:38.472Z,90.96
2023-02-02T17:23:42.854Z,90.83
2023-02-02T17:28:46.846Z,90.88
2023-02-02T17:33:50.025Z,91.04
2023-02-02T17:38:53.243Z,91.13
2023-02-02T17:43:56.443Z,91.17
2023-02-02T17:48:59.652Z,91.17
2023-02-02T17:54:02.856Z,91.01
2023-02-02T17:59:06.370Z,91.01
2023-02-02T18:04:12.778Z,91.06
2023-02-02T18:09:16.171Z,90.96
2023-02-02T18:14:19.380Z,90.82
2023-02-02T18:19:22.688Z,90.82
2023-02-02T18:24:25.898Z,90.98
2023-02-02T18:29:29.465Z,91.14
2023-02-02T18:34:34.651Z,91.19
2023-02-02T18:39:37.781Z,91.41
2023-02-02T18:44:41.400Z,91.43
2023-02-02T18:49:44.713Z,91.57
2023-02-02T18:54:49.036Z,91.78
2023-02-02T18:59:54.814Z,91.89
2023-02-02T19:05:16.573Z,92.12
2023-02-02T19:10:22.865Z,92.35
2023-02-02T19:15:28.888Z,92.11
2023-02-02T19:20:32.834Z,91.76
2023-02-02T19:25:36.481Z,91.68
2023-02-02T19:30:45.152Z,91.71
2023-02-02T19:35:52.580Z,91.64
2023-02-02T19:40:56.245Z,91.64
2023-02-02T19:46:00.640Z,91.70
2023-02-02T19:51:34.407Z,91.72
2023-02-02T19:56:40.325Z,91.61
2023-02-02T20:01:48.022Z,91.35
2023-02-02T20:06:59.149Z,91.22
2023-02-02T20:12:26.952Z,91.07
2023-02-02T20:17:34.667Z,90.96
2023-02-02T20:22:38.892Z,90.74
2023-02-02T20:27:41.996Z,90.64
2023-02-02T20:32:45.415Z,90.97
2023-02-02T20:37:49.534Z,91.68
2023-02-02T20:42:53.051Z,92.75
2023-02-02T20:47:56.163Z,91.25
2023-02-02T20:53:00.302Z,90.67
2023-02-02T20:58:04.915Z,90.60
2023-02-02T21:03:08.147Z,90.63
2023-02-02T21:08:11.665Z,91.00
2023-02-02T21:13:14.867Z,91.04
2023-02-02T21:18:18.006Z,90.74
2023-02-02T21:23:22.027Z,90.57
2023-02-02T21:28:25.413Z,90.47
2023-02-02T21:33:28.623Z,90.44
2023-02-02T21:38:31.839Z,90.22
2023-02-02T21:43:35.250Z,90.39
2023-02-02T21:48:39.889Z,90.29
2023-02-02T21:53:43.093Z,90.01
2023-02-02T21:58:47.743Z,90.01
2023-02-02T22:03:51.354Z,90.00
2023-02-02T22:09:13.118Z,89.98
2023-02-02T22:14:35.666Z,90.04
2023-02-02T22:19:39.716Z,89.85
2023-02-02T22:24:45.899Z,89.61
2023-02-02T22:29:52.253Z,89.47
2023-02-02T22:34:55.457Z,88.99
2023-02-02T22:40:00.592Z,88.97
2023-02-02T22:45:04.468Z,89.10
2023-02-02T22:50:08.501Z,89.06
2023-02-02T22:55:12.706Z,88.97
2023-02-02T23:00:29.207Z,88.46
2023-02-02T23:05:32.549Z,88.06
2023-02-02T23:10:36.359Z,87.79
2023-02-02T23:15:39.623Z,87.60
2023-02-02T23:20:42.830Z,87.56
2023-02-02T23:25:46.002Z,87.55
2023-02-02T23:30:49.712Z,87.21
2023-02-02T23:35:52.905Z,87.35
2023-02-02T23:40:56.339Z,87.31
2023-02-02T23:46:00.460Z,87.30
2023-02-02T23:51:04.035Z,87.46
2023-02-02T23:56:07.656Z,87.40
